createdAt,value
2022-09-03T00:00:24.262Z,1004.31
2022-09-03T00:01:24.318Z,1004.32
2022-09-03T00:02:24.283Z,1004.32
2022-09-03T00:03:24.254Z,1004.33
2022-09-03T00:04:25.810Z,1004.34
2022-09-03T00:05:24.248Z,1004.34
2022-09-03T00:06:24.246Z,1004.31
2022-09-03T00:07:24.238Z,1004.29
2022-09-03T00:08:24.333Z,1004.33
2022-09-03T00:09:24.232Z,1004.34
2022-09-03T00:10:24.233Z,1004.33
2022-09-03T00:11:24.225Z,1004.30
2022-09-03T00:12:24.217Z,1004.32
2022-09-03T00:13:24.218Z,1004.34
2022-09-03T00:14:24.217Z,1004.32
2022-09-03T00:15:24.205Z,1004.32
2022-09-03T00:16:24.242Z,1004.30
2022-09-03T00:17:24.199Z,1004.29
2022-09-03T00:18:24.264Z,1004.32
2022-09-03T00:19:24.191Z,1004.29
2022-09-03T00:20:24.188Z,1004.24
2022-09-03T00:21:24.187Z,1004.25
2022-09-03T00:22:24.184Z,1004.28
2022-09-03T00:23:24.178Z,1004.24
2022-09-03T00:24:24.185Z,1004.22
2022-09-03T00:25:25.020Z,1004.28
2022-09-03T00:26:24.163Z,1004.20
2022-09-03T00:27:24.150Z,1004.26
2022-09-03T00:28:24.348Z,1004.23
2022-09-03T00:29:24.157Z,1004.19
2022-09-03T00:30:24.147Z,1004.23
2022-09-03T00:31:24.158Z,1004.16
2022-09-03T00:32:24.143Z,1004.20
2022-09-03T00:33:24.134Z,1004.20
2022-09-03T00:34:24.134Z,1004.19
2022-09-03T00:35:24.127Z,1004.20
2022-09-03T00:36:24.123Z,1004.21
2022-09-03T00:37:24.110Z,1004.23
2022-09-03T00:38:24.191Z,1004.22
2022-09-03T00:39:24.179Z,1004.20
2022-09-03T00:40:24.112Z,1004.21
2022-09-03T00:41:24.102Z,1004.21
2022-09-03T00:42:24.096Z,1004.18
2022-09-03T00:43:24.097Z,1004.21
2022-09-03T00:44:24.090Z,1004.23
2022-09-03T00:45:24.088Z,1004.22
2022-09-03T00:46:24.137Z,1004.19
2022-09-03T00:47:24.077Z,1004.18
2022-09-03T00:48:28.272Z,1004.21
2022-09-03T00:49:24.068Z,1004.19
2022-09-03T00:50:24.067Z,1004.19
2022-09-03T00:51:24.063Z,1004.16
2022-09-03T00:52:24.056Z,1004.12
2022-09-03T00:53:24.052Z,1004.13
2022-09-03T00:54:24.046Z,1004.18
2022-09-03T00:55:24.046Z,1004.16
2022-09-03T00:56:24.041Z,1004.16
2022-09-03T00:57:24.039Z,1004.13
2022-09-03T00:58:24.127Z,1004.11
2022-09-03T00:59:24.043Z,1004.19
2022-09-03T01:00:24.027Z,1004.15
2022-09-03T01:01:24.123Z,1004.19
2022-09-03T01:02:24.189Z,1004.15
2022-09-03T01:03:24.017Z,1004.18
2022-09-03T01:04:24.004Z,1004.15
2022-09-03T01:05:23.999Z,1004.14
2022-09-03T01:06:23.995Z,1004.14
2022-09-03T01:07:23.995Z,1004.10
2022-09-03T01:08:24.085Z,1004.12
2022-09-03T01:09:23.981Z,1004.12
2022-09-03T01:10:23.983Z,1004.15
2022-09-03T01:11:23.974Z,1004.18
2022-09-03T01:12:23.975Z,1004.15
2022-09-03T01:13:23.962Z,1004.14
2022-09-03T01:14:23.962Z,1004.20
2022-09-03T01:15:23.957Z,1004.20
2022-09-03T01:16:24.044Z,1004.20
2022-09-03T01:17:23.949Z,1004.20
2022-09-03T01:18:24.051Z,1004.19
2022-09-03T01:19:23.939Z,1004.21
2022-09-03T01:20:23.938Z,1004.19
2022-09-03T01:21:23.933Z,1004.23
2022-09-03T01:22:23.927Z,1004.20
2022-09-03T01:23:23.925Z,1004.24
2022-09-03T01:24:23.917Z,1004.20
2022-09-03T01:25:23.913Z,1004.23
2022-09-03T01:26:23.909Z,1004.21
2022-09-03T01:27:23.906Z,1004.18
2022-09-03T01:28:24.007Z,1004.19
2022-09-03T01:29:23.892Z,1004.24
2022-09-03T01:30:23.892Z,1004.19
2022-09-03T01:31:23.939Z,1004.19
2022-09-03T01:32:23.885Z,1004.24
2022-09-03T01:33:23.875Z,1004.18
2022-09-03T01:34:23.878Z,1004.15
2022-09-03T01:35:23.870Z,1004.17
2022-09-03T01:36:23.869Z,1004.19
2022-09-03T01:37:23.861Z,1004.16
2022-09-03T01:38:23.893Z,1004.14
2022-09-03T01:39:23.907Z,1004.12
2022-09-03T01:40:23.850Z,1004.17
2022-09-03T01:41:23.849Z,1004.12
2022-09-03T01:42:23.837Z,1004.13
2022-09-03T01:43:23.839Z,1004.13
2022-09-03T01:44:23.832Z,1004.08
2022-09-03T01:45:23.826Z,1004.08
2022-09-03T01:46:23.856Z,1004.08
2022-09-03T01:47:23.816Z,1004.09
2022-09-03T01:48:23.866Z,1004.07
2022-09-03T01:49:23.806Z,1004.06
2022-09-03T01:50:23.803Z,1004.11
2022-09-03T01:51:23.800Z,1004.10
2022-09-03T01:52:23.797Z,1004.07
2022-09-03T01:53:23.793Z,1004.07
2022-09-03T01:54:23.791Z,1004.06
2022-09-03T01:55:23.772Z,1004.05
2022-09-03T01:56:23.776Z,1004.04
2022-09-03T01:57:35.312Z,1004.06
2022-09-03T01:58:23.800Z,1004.05
2022-09-03T01:59:23.765Z,1004.02
2022-09-03T02:00:23.759Z,1004.05
2022-09-03T02:01:23.826Z,1004.04
2022-09-03T02:02:23.792Z,1004.04
2022-09-03T02:03:23.748Z,1004.02
2022-09-03T02:04:23.755Z,1004.05
2022-09-03T02:05:23.734Z,1004.02
2022-09-03T02:06:23.732Z,1004.08
2022-09-03T02:07:23.728Z,1004.06
2022-09-03T02:08:23.956Z,1004.03
2022-09-03T02:09:23.719Z,1003.99
2022-09-03T02:10:23.717Z,1003.98
2022-09-03T02:11:23.709Z,1004.04
2022-09-03T02:12:23.703Z,1004.03
2022-09-03T02:13:23.699Z,1003.97
2022-09-03T02:14:23.697Z,1003.94
2022-09-03T02:15:23.764Z,1003.98
2022-09-03T02:16:23.688Z,1003.95
2022-09-03T02:17:23.686Z,1003.95
2022-09-03T02:18:23.810Z,1003.89
2022-09-03T02:19:23.672Z,1003.91
2022-09-03T02:20:23.673Z,1003.95
2022-09-03T02:21:23.662Z,1003.89
2022-09-03T02:22:23.661Z,1003.87
2022-09-03T02:23:27.680Z,1003.93
2022-09-03T02:24:23.651Z,1003.88
2022-09-03T02:25:23.647Z,1003.90
2022-09-03T02:26:23.650Z,1003.88
2022-09-03T02:27:23.639Z,1003.84
2022-09-03T02:28:23.695Z,1003.85
2022-09-03T02:29:23.628Z,1003.88
2022-09-03T02:30:23.621Z,1003.91
2022-09-03T02:31:23.655Z,1003.89
2022-09-03T02:32:23.614Z,1003.91
2022-09-03T02:33:23.611Z,1003.90
2022-09-03T02:34:23.606Z,1003.92
2022-09-03T02:35:23.604Z,1003.89
2022-09-03T02:36:23.593Z,1003.84
2022-09-03T02:37:23.592Z,1003.86
2022-09-03T02:38:23.730Z,1003.88
2022-09-03T02:39:23.642Z,1003.84
2022-09-03T02:40:23.580Z,1003.79
2022-09-03T02:41:23.569Z,1003.88
2022-09-03T02:42:23.569Z,1003.88
2022-09-03T02:43:25.913Z,1003.89
2022-09-03T02:44:23.557Z,1003.86
2022-09-03T02:45:23.556Z,1003.93
2022-09-03T02:46:23.637Z,1003.87
2022-09-03T02:47:23.548Z,1003.91
2022-09-03T02:48:23.581Z,1003.91
2022-09-03T02:49:23.534Z,1003.89
2022-09-03T02:50:23.530Z,1003.90
2022-09-03T02:51:23.530Z,1003.91
2022-09-03T02:52:23.525Z,1003.88
2022-09-03T02:53:23.531Z,1003.91
2022-09-03T02:54:23.524Z,1003.89
2022-09-03T02:55:23.514Z,1003.87
2022-09-03T02:56:23.507Z,1003.86
2022-09-03T02:57:27.519Z,1003.85
2022-09-03T02:58:23.618Z,1003.84
2022-09-03T02:59:23.491Z,1003.86
2022-09-03T03:00:23.489Z,1003.84
2022-09-03T03:01:24.215Z,1003.85
2022-09-03T03:02:23.531Z,1003.86
2022-09-03T03:03:23.470Z,1003.86
2022-09-03T03:04:23.468Z,1003.83
2022-09-03T03:05:23.467Z,1003.83
2022-09-03T03:06:23.457Z,1003.82
2022-09-03T03:07:23.455Z,1003.83
2022-09-03T03:08:23.529Z,1003.82
2022-09-03T03:09:23.444Z,1003.79
2022-09-03T03:10:23.439Z,1003.80
2022-09-03T03:11:23.437Z,1003.79
2022-09-03T03:12:23.433Z,1003.80
2022-09-03T03:13:23.434Z,1003.84
2022-09-03T03:14:23.425Z,1003.85
2022-09-03T03:15:23.418Z,1003.80
2022-09-03T03:16:23.437Z,1003.82
2022-09-03T03:17:23.406Z,1003.85
2022-09-03T03:18:23.414Z,1003.84
2022-09-03T03:19:23.399Z,1003.85
2022-09-03T03:20:23.393Z,1003.84
2022-09-03T03:21:23.382Z,1003.85
2022-09-03T03:22:23.378Z,1003.83
2022-09-03T03:23:23.376Z,1003.80
2022-09-03T03:24:23.377Z,1003.80
2022-09-03T03:25:23.368Z,1003.78
2022-09-03T03:26:23.358Z,1003.81
2022-09-03T03:27:23.363Z,1003.74
2022-09-03T03:28:23.607Z,1003.77
2022-09-03T03:29:23.356Z,1003.77
2022-09-03T03:30:23.349Z,1003.78
2022-09-03T03:31:23.399Z,1003.75
2022-09-03T03:32:23.337Z,1003.70
2022-09-03T03:33:23.332Z,1003.73
2022-09-03T03:34:23.324Z,1003.74
2022-09-03T03:35:23.320Z,1003.77
2022-09-03T03:36:23.315Z,1003.73
2022-09-03T03:37:23.309Z,1003.79
2022-09-03T03:38:23.366Z,1003.76
2022-09-03T03:39:23.364Z,1003.79
2022-09-03T03:40:23.296Z,1003.80
2022-09-03T03:41:23.295Z,1003.80
2022-09-03T03:42:23.285Z,1003.79
2022-09-03T03:43:23.278Z,1003.78
2022-09-03T03:44:23.268Z,1003.86
2022-09-03T03:45:23.274Z,1003.82
2022-09-03T03:46:23.358Z,1003.88
2022-09-03T03:47:23.263Z,1003.80
2022-09-03T03:48:23.257Z,1003.83
2022-09-03T03:49:23.251Z,1003.87
2022-09-03T03:50:23.255Z,1003.82
2022-09-03T03:51:23.243Z,1003.84
2022-09-03T03:52:23.236Z,1003.85
2022-09-03T03:53:23.233Z,1003.81
2022-09-03T03:54:23.229Z,1003.82
2022-09-03T03:55:23.225Z,1003.81
2022-09-03T03:56:23.216Z,1003.81
2022-09-03T03:57:23.216Z,1003.87
2022-09-03T03:58:23.393Z,1003.89
2022-09-03T03:59:23.206Z,1003.91
2022-09-03T04:00:24.639Z,1003.89
2022-09-03T04:01:23.302Z,1003.90
2022-09-03T04:02:23.229Z,1003.89
2022-09-03T04:03:23.187Z,1003.88
2022-09-03T04:04:23.178Z,1003.87
2022-09-03T04:05:24.027Z,1003.85
2022-09-03T04:06:23.166Z,1003.81
2022-09-03T04:07:23.170Z,1003.82
2022-09-03T04:08:23.164Z,1003.85
2022-09-03T04:09:23.153Z,1003.83
2022-09-03T04:10:23.147Z,1003.86
2022-09-03T04:11:23.146Z,1003.89
2022-09-03T04:12:23.137Z,1003.93
2022-09-03T04:13:23.129Z,1003.87
2022-09-03T04:14:23.131Z,1003.88
2022-09-03T04:15:23.128Z,1003.86
2022-09-03T04:16:23.229Z,1003.86
2022-09-03T04:17:25.261Z,1003.89
2022-09-03T04:18:23.200Z,1003.89
2022-09-03T04:19:23.107Z,1003.90
2022-09-03T04:20:23.102Z,1003.92
2022-09-03T04:21:23.114Z,1003.93
2022-09-03T04:22:23.094Z,1003.88
2022-09-03T04:23:23.087Z,1003.89
2022-09-03T04:24:23.084Z,1003.88
2022-09-03T04:25:23.074Z,1003.85
2022-09-03T04:26:23.074Z,1003.85
2022-09-03T04:27:23.077Z,1003.85
2022-09-03T04:28:25.104Z,1003.78
2022-09-03T04:29:23.055Z,1003.80
2022-09-03T04:30:23.054Z,1003.80
2022-09-03T04:31:23.065Z,1003.82
2022-09-03T04:32:23.044Z,1003.79
2022-09-03T04:33:23.035Z,1003.76
2022-09-03T04:34:23.035Z,1003.75
2022-09-03T04:35:23.030Z,1003.74
2022-09-03T04:36:23.025Z,1003.75
2022-09-03T04:37:23.047Z,1003.72
2022-09-03T04:38:23.077Z,1003.76
2022-09-03T04:39:23.085Z,1003.71
2022-09-03T04:40:23.004Z,1003.69
2022-09-03T04:41:23.023Z,1003.72
2022-09-03T04:42:23.013Z,1003.70
2022-09-03T04:43:22.993Z,1003.70
2022-09-03T04:44:22.987Z,1003.67
2022-09-03T04:45:22.975Z,1003.68
2022-09-03T04:46:22.999Z,1003.68
2022-09-03T04:47:22.973Z,1003.66
2022-09-03T04:48:23.050Z,1003.69
2022-09-03T04:49:22.960Z,1003.65
2022-09-03T04:50:22.955Z,1003.70
2022-09-03T04:51:22.953Z,1003.66
2022-09-03T04:52:22.949Z,1003.69
2022-09-03T04:53:22.946Z,1003.68
2022-09-03T04:54:22.940Z,1003.69
2022-09-03T04:55:22.932Z,1003.74
2022-09-03T04:56:22.930Z,1003.75
2022-09-03T04:57:22.916Z,1003.78
2022-09-03T04:58:22.919Z,1003.75
2022-09-03T04:59:22.918Z,1003.74
2022-09-03T05:00:22.907Z,1003.75
2022-09-03T05:01:22.969Z,1003.78
2022-09-03T05:02:22.937Z,1003.74
2022-09-03T05:03:22.892Z,1003.77
2022-09-03T05:04:22.892Z,1003.79
2022-09-03T05:05:22.881Z,1003.78
2022-09-03T05:06:22.876Z,1003.79
2022-09-03T05:07:22.871Z,1003.80
2022-09-03T05:08:22.877Z,1003.81
2022-09-03T05:09:22.864Z,1003.81
2022-09-03T05:10:22.856Z,1003.87
2022-09-03T05:11:22.853Z,1003.84
2022-09-03T05:12:22.849Z,1003.83
2022-09-03T05:13:22.849Z,1003.88
2022-09-03T05:14:22.840Z,1003.89
2022-09-03T05:15:22.838Z,1003.87
2022-09-03T05:16:22.861Z,1003.91
2022-09-03T05:17:22.825Z,1003.86
2022-09-03T05:18:22.904Z,1003.90
2022-09-03T05:19:22.818Z,1003.92
2022-09-03T05:20:22.803Z,1003.94
2022-09-03T05:21:22.813Z,1003.89
2022-09-03T05:22:22.800Z,1003.92
2022-09-03T05:23:22.799Z,1003.90
2022-09-03T05:24:22.793Z,1003.91
2022-09-03T05:25:22.789Z,1003.93
2022-09-03T05:26:22.781Z,1003.92
2022-09-03T05:27:22.780Z,1003.91
2022-09-03T05:28:22.798Z,1003.95
2022-09-03T05:29:22.764Z,1003.96
2022-09-03T05:30:22.765Z,1003.96
2022-09-03T05:31:22.791Z,1003.94
2022-09-03T05:32:22.755Z,1003.95
2022-09-03T05:33:22.751Z,1003.92
2022-09-03T05:34:22.743Z,1003.89
2022-09-03T05:35:25.910Z,1003.89
2022-09-03T05:36:22.739Z,1003.88
2022-09-03T05:37:22.730Z,1003.90
2022-09-03T05:38:22.732Z,1003.88
2022-09-03T05:39:22.771Z,1003.90
2022-09-03T05:40:22.717Z,1003.88
2022-09-03T05:41:22.714Z,1003.87
2022-09-03T05:42:22.707Z,1003.91
2022-09-03T05:43:22.703Z,1003.91
2022-09-03T05:44:22.699Z,1003.92
2022-09-03T05:45:22.743Z,1003.94
2022-09-03T05:46:22.690Z,1003.92
2022-09-03T05:47:22.690Z,1003.91
2022-09-03T05:48:22.680Z,1003.90
2022-09-03T05:49:22.676Z,1003.84
2022-09-03T05:50:22.671Z,1003.84
2022-09-03T05:51:22.665Z,1003.87
2022-09-03T05:52:22.664Z,1003.87
2022-09-03T05:53:22.706Z,1003.91
2022-09-03T05:54:22.655Z,1003.88
2022-09-03T05:55:22.647Z,1003.89
2022-09-03T05:56:22.641Z,1003.88
2022-09-03T05:57:22.634Z,1003.89
2022-09-03T05:58:22.633Z,1003.87
2022-09-03T05:59:22.632Z,1003.89
2022-09-03T06:00:22.628Z,1003.90
2022-09-03T06:01:22.621Z,1003.94
2022-09-03T06:02:22.754Z,1003.95
2022-09-03T06:03:22.892Z,1003.93
2022-09-03T06:04:22.606Z,1003.92
2022-09-03T06:05:22.600Z,1003.91
2022-09-03T06:06:22.596Z,1003.95
2022-09-03T06:07:22.589Z,1003.94
2022-09-03T06:08:22.592Z,1003.98
2022-09-03T06:09:23.380Z,1004.00
2022-09-03T06:10:26.937Z,1004.03
2022-09-03T06:11:22.572Z,1004.03
2022-09-03T06:12:22.568Z,1004.01
2022-09-03T06:13:22.667Z,1004.06
2022-09-03T06:14:22.558Z,1004.05
2022-09-03T06:15:22.554Z,1004.07
2022-09-03T06:16:31.927Z,1004.06
2022-09-03T06:17:22.545Z,1004.09
2022-09-03T06:18:22.602Z,1004.09
2022-09-03T06:19:22.596Z,1004.08
2022-09-03T06:20:22.532Z,1004.09
2022-09-03T06:21:22.527Z,1004.09
2022-09-03T06:22:22.519Z,1004.08
2022-09-03T06:23:22.517Z,1004.09
2022-09-03T06:24:22.517Z,1004.11
2022-09-03T06:25:22.508Z,1004.12
2022-09-03T06:26:22.506Z,1004.08
2022-09-03T06:27:22.502Z,1004.07
2022-09-03T06:28:23.394Z,1004.12
2022-09-03T06:29:22.491Z,1004.07
2022-09-03T06:30:22.488Z,1004.09
2022-09-03T06:31:22.521Z,1004.11
2022-09-03T06:32:22.478Z,1004.11
2022-09-03T06:33:22.519Z,1004.14
2022-09-03T06:34:22.470Z,1004.12
2022-09-03T06:35:22.473Z,1004.16
2022-09-03T06:36:22.461Z,1004.16
2022-09-03T06:37:22.462Z,1004.15
2022-09-03T06:38:22.451Z,1004.12
2022-09-03T06:39:22.552Z,1004.12
2022-09-03T06:40:22.442Z,1004.13
2022-09-03T06:41:22.439Z,1004.14
2022-09-03T06:42:22.438Z,1004.14
2022-09-03T06:43:22.426Z,1004.18
2022-09-03T06:44:22.429Z,1004.15
2022-09-03T06:45:22.427Z,1004.17
2022-09-03T06:46:22.420Z,1004.17
2022-09-03T06:47:22.418Z,1004.16
2022-09-03T06:48:22.435Z,1004.19
2022-09-03T06:49:22.406Z,1004.18
2022-09-03T06:50:22.404Z,1004.21
2022-09-03T06:51:22.396Z,1004.20
2022-09-03T06:52:22.398Z,1004.18
2022-09-03T06:53:22.392Z,1004.15
2022-09-03T06:54:22.391Z,1004.20
2022-09-03T06:55:22.386Z,1004.18
2022-09-03T06:56:22.378Z,1004.22
2022-09-03T06:57:22.374Z,1004.21
2022-09-03T06:58:22.400Z,1004.25
2022-09-03T06:59:22.372Z,1004.25
2022-09-03T07:00:22.366Z,1004.25
2022-09-03T07:01:22.429Z,1004.28
2022-09-03T07:02:22.476Z,1004.28
2022-09-03T07:03:22.578Z,1004.29
2022-09-03T07:04:22.349Z,1004.30
2022-09-03T07:05:22.350Z,1004.24
2022-09-03T07:06:22.345Z,1004.24
2022-09-03T07:07:22.349Z,1004.30
2022-09-03T07:08:22.368Z,1004.32
2022-09-03T07:09:22.328Z,1004.33
2022-09-03T07:10:22.339Z,1004.32
2022-09-03T07:11:22.321Z,1004.37
2022-09-03T07:12:22.327Z,1004.32
2022-09-03T07:13:22.317Z,1004.34
2022-09-03T07:14:22.325Z,1004.35
2022-09-03T07:15:22.319Z,1004.41
2022-09-03T07:16:22.391Z,1004.39
2022-09-03T07:17:22.304Z,1004.35
2022-09-03T07:18:22.335Z,1004.36
2022-09-03T07:19:22.297Z,1004.36
2022-09-03T07:20:22.326Z,1004.36
2022-09-03T07:21:22.291Z,1004.42
2022-09-03T07:22:22.289Z,1004.41
2022-09-03T07:23:22.280Z,1004.40
2022-09-03T07:24:22.728Z,1004.40
2022-09-03T07:25:22.274Z,1004.43
2022-09-03T07:26:22.268Z,1004.42
2022-09-03T07:27:22.272Z,1004.47
2022-09-03T07:28:22.348Z,1004.46
2022-09-03T07:29:22.264Z,1004.51
2022-09-03T07:30:22.295Z,1004.45
2022-09-03T07:31:22.381Z,1004.48
2022-09-03T07:32:22.253Z,1004.50
2022-09-03T07:33:22.248Z,1004.54
2022-09-03T07:34:22.401Z,1004.51
2022-09-03T07:35:22.238Z,1004.47
2022-09-03T07:36:22.235Z,1004.52
2022-09-03T07:37:22.231Z,1004.56
2022-09-03T07:38:22.262Z,1004.51
2022-09-03T07:39:22.290Z,1004.49
2022-09-03T07:40:22.222Z,1004.49
2022-09-03T07:41:28.534Z,1004.49
2022-09-03T07:42:22.216Z,1004.51
2022-09-03T07:43:22.208Z,1004.52
2022-09-03T07:44:22.208Z,1004.49
2022-09-03T07:45:22.200Z,1004.54
2022-09-03T07:46:22.229Z,1004.57
2022-09-03T07:47:25.221Z,1004.56
2022-09-03T07:48:22.220Z,1004.55
2022-09-03T07:49:22.543Z,1004.53
2022-09-03T07:50:22.187Z,1004.51
2022-09-03T07:51:22.176Z,1004.53
2022-09-03T07:52:22.175Z,1004.56
2022-09-03T07:53:22.167Z,1004.55
2022-09-03T07:54:22.165Z,1004.58
2022-09-03T07:55:22.163Z,1004.54
2022-09-03T07:56:22.164Z,1004.59
2022-09-03T07:57:22.155Z,1004.60
2022-09-03T07:58:22.180Z,1004.61
2022-09-03T07:59:22.146Z,1004.62
2022-09-03T08:00:22.140Z,1004.64
2022-09-03T08:01:22.129Z,1004.64
2022-09-03T08:02:22.132Z,1004.65
2022-09-03T08:03:22.226Z,1004.65
2022-09-03T08:04:22.167Z,1004.60
2022-09-03T08:05:22.122Z,1004.60
2022-09-03T08:06:22.120Z,1004.59
2022-09-03T08:07:22.117Z,1004.58
2022-09-03T08:08:22.168Z,1004.62
2022-09-03T08:09:22.104Z,1004.66
2022-09-03T08:10:22.101Z,1004.63
2022-09-03T08:11:22.111Z,1004.67
2022-09-03T08:12:22.100Z,1004.73
2022-09-03T08:13:22.092Z,1004.68
2022-09-03T08:14:22.087Z,1004.69
2022-09-03T08:15:22.082Z,1004.73
2022-09-03T08:16:22.137Z,1004.65
2022-09-03T08:17:22.073Z,1004.65
2022-09-03T08:18:22.136Z,1004.65
2022-09-03T08:19:22.064Z,1004.69
2022-09-03T08:20:22.060Z,1004.69
2022-09-03T08:21:22.055Z,1004.65
2022-09-03T08:22:22.053Z,1004.63
2022-09-03T08:23:22.045Z,1004.62
2022-09-03T08:24:22.046Z,1004.68
2022-09-03T08:25:22.036Z,1004.66
2022-09-03T08:26:22.034Z,1004.66
2022-09-03T08:27:22.029Z,1004.68
2022-09-03T08:28:22.056Z,1004.68
2022-09-03T08:29:22.020Z,1004.70
2022-09-03T08:30:22.028Z,1004.68
2022-09-03T08:31:22.087Z,1004.68
2022-09-03T08:32:22.009Z,1004.67
2022-09-03T08:33:22.001Z,1004.69
2022-09-03T08:34:22.004Z,1004.72
2022-09-03T08:35:21.996Z,1004.72
2022-09-03T08:36:21.991Z,1004.69
2022-09-03T08:37:21.995Z,1004.69
2022-09-03T08:38:22.021Z,1004.72
2022-09-03T08:39:22.013Z,1004.69
2022-09-03T08:40:21.976Z,1004.69
2022-09-03T08:41:21.969Z,1004.65
2022-09-03T08:42:21.964Z,1004.68
2022-09-03T08:43:21.961Z,1004.68
2022-09-03T08:44:21.962Z,1004.61
2022-09-03T08:45:21.950Z,1004.66
2022-09-03T08:46:22.046Z,1004.69
2022-09-03T08:47:21.953Z,1004.66
2022-09-03T08:48:25.691Z,1004.65
2022-09-03T08:49:21.941Z,1004.62
2022-09-03T08:50:21.948Z,1004.64
2022-09-03T08:51:21.933Z,1004.69
2022-09-03T08:52:21.934Z,1004.68
2022-09-03T08:53:21.928Z,1004.68
2022-09-03T08:54:21.927Z,1004.72
2022-09-03T08:55:21.916Z,1004.73
2022-09-03T08:56:21.915Z,1004.71
2022-09-03T08:57:21.913Z,1004.75
2022-09-03T08:58:21.991Z,1004.72
2022-09-03T08:59:21.910Z,1004.78
2022-09-03T09:00:21.901Z,1004.77
2022-09-03T09:01:21.938Z,1004.76
2022-09-03T09:02:22.018Z,1004.78
2022-09-03T09:03:21.896Z,1004.78
2022-09-03T09:04:21.894Z,1004.75
2022-09-03T09:05:21.884Z,1004.75
2022-09-03T09:06:21.881Z,1004.79
2022-09-03T09:07:21.871Z,1004.81
2022-09-03T09:08:21.942Z,1004.76
2022-09-03T09:09:21.867Z,1004.79
2022-09-03T09:10:21.864Z,1004.79
2022-09-03T09:11:21.866Z,1004.84
2022-09-03T09:12:21.860Z,1004.86
2022-09-03T09:13:21.855Z,1004.81
2022-09-03T09:14:21.853Z,1004.81
2022-09-03T09:15:21.843Z,1004.81
2022-09-03T09:16:21.915Z,1004.81
2022-09-03T09:17:21.848Z,1004.81
2022-09-03T09:18:21.868Z,1004.82
2022-09-03T09:19:21.832Z,1004.77
2022-09-03T09:20:21.838Z,1004.83
2022-09-03T09:21:25.132Z,1004.83
2022-09-03T09:22:21.827Z,1004.82
2022-09-03T09:23:21.828Z,1004.79
2022-09-03T09:24:21.816Z,1004.80
2022-09-03T09:25:21.816Z,1004.80
2022-09-03T09:26:21.822Z,1004.82
2022-09-03T09:27:21.812Z,1004.80
2022-09-03T09:28:21.913Z,1004.79
2022-09-03T09:29:21.812Z,1004.83
2022-09-03T09:30:21.802Z,1004.87
2022-09-03T09:31:21.871Z,1004.79
2022-09-03T09:32:21.929Z,1004.73
2022-09-03T09:33:21.789Z,1004.75
2022-09-03T09:34:21.800Z,1004.81
2022-09-03T09:35:21.793Z,1004.85
2022-09-03T09:36:21.791Z,1004.81
2022-09-03T09:37:21.791Z,1004.82
2022-09-03T09:38:21.787Z,1004.77
2022-09-03T09:39:21.807Z,1004.76
2022-09-03T09:40:21.781Z,1004.76
2022-09-03T09:41:25.123Z,1004.74
2022-09-03T09:42:21.781Z,1004.72
2022-09-03T09:43:21.775Z,1004.75
2022-09-03T09:44:21.772Z,1004.80
2022-09-03T09:45:21.769Z,1004.76
2022-09-03T09:46:21.813Z,1004.72
2022-09-03T09:47:21.767Z,1004.75
2022-09-03T09:48:21.833Z,1004.79
2022-09-03T09:49:21.761Z,1004.79
2022-09-03T09:50:27.332Z,1004.84
2022-09-03T09:51:21.760Z,1004.82
2022-09-03T09:52:21.756Z,1004.82
2022-09-03T09:53:21.818Z,1004.82
2022-09-03T09:54:21.755Z,1004.83
2022-09-03T09:55:21.759Z,1004.83
2022-09-03T09:56:21.752Z,1004.81
2022-09-03T09:57:21.757Z,1004.81
2022-09-03T09:58:21.824Z,1004.83
2022-09-03T09:59:21.738Z,1004.80
2022-09-03T10:00:21.743Z,1004.83
2022-09-03T10:01:21.795Z,1004.85
2022-09-03T10:02:22.455Z,1004.87
2022-09-03T10:03:21.734Z,1004.91
2022-09-03T10:04:21.732Z,1004.89
2022-09-03T10:05:21.726Z,1004.87
2022-09-03T10:06:21.729Z,1004.87
2022-09-03T10:07:21.728Z,1004.85
2022-09-03T10:08:21.804Z,1004.85
2022-09-03T10:09:21.725Z,1004.84
2022-09-03T10:10:21.728Z,1004.78
2022-09-03T10:11:21.718Z,1004.81
2022-09-03T10:12:21.717Z,1004.80
2022-09-03T10:13:21.720Z,1004.79
2022-09-03T10:14:21.715Z,1004.82
2022-09-03T10:15:21.714Z,1004.81
2022-09-03T10:16:21.774Z,1004.81
2022-09-03T10:17:21.728Z,1004.81
2022-09-03T10:18:26.039Z,1004.77
2022-09-03T10:19:21.706Z,1004.79
2022-09-03T10:20:21.702Z,1004.80
2022-09-03T10:21:21.703Z,1004.82
2022-09-03T10:22:21.699Z,1004.77
2022-09-03T10:23:21.697Z,1004.79
2022-09-03T10:24:21.698Z,1004.80
2022-09-03T10:25:21.691Z,1004.82
2022-09-03T10:26:21.692Z,1004.82
2022-09-03T10:27:21.692Z,1004.84
2022-09-03T10:28:21.692Z,1004.83
2022-09-03T10:29:21.689Z,1004.81
2022-09-03T10:30:21.689Z,1004.82
2022-09-03T10:31:21.764Z,1004.81
2022-09-03T10:32:21.692Z,1004.81
2022-09-03T10:33:21.686Z,1004.75
2022-09-03T10:34:21.685Z,1004.73
2022-09-03T10:35:21.681Z,1004.74
2022-09-03T10:36:21.687Z,1004.76
2022-09-03T10:37:21.688Z,1004.77
2022-09-03T10:38:21.685Z,1004.80
2022-09-03T10:39:21.720Z,1004.76
2022-09-03T10:40:21.682Z,1004.82
2022-09-03T10:41:21.684Z,1004.82
2022-09-03T10:42:21.681Z,1004.87
2022-09-03T10:43:21.683Z,1004.77
2022-09-03T10:44:21.687Z,1004.71
2022-09-03T10:45:21.681Z,1004.76
2022-09-03T10:46:24.144Z,1004.84
2022-09-03T10:47:21.683Z,1004.76
2022-09-03T10:48:21.687Z,1004.74
2022-09-03T10:49:21.680Z,1004.79
2022-09-03T10:50:21.726Z,1004.78
2022-09-03T10:51:21.683Z,1004.79
2022-09-03T10:52:21.676Z,1004.79
2022-09-03T10:53:21.678Z,1004.79
2022-09-03T10:54:21.679Z,1004.79
2022-09-03T10:55:21.678Z,1004.78
2022-09-03T10:56:21.672Z,1004.76
2022-09-03T10:57:21.673Z,1004.76
2022-09-03T10:58:21.673Z,1004.77
2022-09-03T10:59:23.392Z,1004.79
2022-09-03T11:00:21.671Z,1004.80
2022-09-03T11:01:21.734Z,1004.77
2022-09-03T11:02:21.745Z,1004.82
2022-09-03T11:03:21.667Z,1004.77
2022-09-03T11:04:21.665Z,1004.76
2022-09-03T11:05:21.667Z,1004.80
2022-09-03T11:06:21.663Z,1004.77
2022-09-03T11:07:21.663Z,1004.81
2022-09-03T11:08:21.666Z,1004.84
2022-09-03T11:09:21.661Z,1004.78
2022-09-03T11:10:21.658Z,1004.75
2022-09-03T11:11:21.662Z,1004.77
2022-09-03T11:12:21.654Z,1004.77
2022-09-03T11:13:21.659Z,1004.75
2022-09-03T11:14:21.646Z,1004.75
2022-09-03T11:15:25.141Z,1004.77
2022-09-03T11:16:21.684Z,1004.72
2022-09-03T11:17:21.652Z,1004.82
2022-09-03T11:18:21.646Z,1004.76
2022-09-03T11:19:21.649Z,1004.79
2022-09-03T11:20:21.647Z,1004.74
2022-09-03T11:21:21.646Z,1004.79
2022-09-03T11:22:21.651Z,1004.75
2022-09-03T11:23:21.647Z,1004.76
2022-09-03T11:24:21.646Z,1004.75
2022-09-03T11:25:21.710Z,1004.72
2022-09-03T11:26:21.648Z,1004.65
2022-09-03T11:27:21.650Z,1004.64
2022-09-03T11:28:21.650Z,1004.63
2022-09-03T11:29:21.651Z,1004.58
2022-09-03T11:30:21.669Z,1004.61
2022-09-03T11:31:21.696Z,1004.62
2022-09-03T11:32:21.654Z,1004.59
2022-09-03T11:33:21.653Z,1004.58
2022-09-03T11:34:23.514Z,1004.58
2022-09-03T11:35:21.667Z,1004.48
2022-09-03T11:36:21.666Z,1004.51
2022-09-03T11:37:21.688Z,1004.51
2022-09-03T11:38:21.667Z,1004.52
2022-09-03T11:39:21.703Z,1004.50
2022-09-03T11:40:21.682Z,1004.53
2022-09-03T11:41:21.673Z,1004.45
2022-09-03T11:42:21.678Z,1004.45
2022-09-03T11:43:21.675Z,1004.43
2022-09-03T11:44:21.676Z,1004.43
2022-09-03T11:45:21.702Z,1004.46
2022-09-03T11:46:21.983Z,1004.47
2022-09-03T11:47:21.679Z,1004.40
2022-09-03T11:48:21.682Z,1004.40
2022-09-03T11:49:21.685Z,1004.42
2022-09-03T11:50:21.753Z,1004.37
2022-09-03T11:51:21.686Z,1004.38
2022-09-03T11:52:21.693Z,1004.31
2022-09-03T11:53:21.701Z,1004.28
2022-09-03T11:54:21.695Z,1004.26
2022-09-03T11:55:21.701Z,1004.23
2022-09-03T11:56:21.720Z,1004.25
2022-09-03T11:57:21.698Z,1004.28
2022-09-03T11:58:21.697Z,1004.25
2022-09-03T11:59:21.706Z,1004.23
2022-09-03T12:00:21.702Z,1004.21
2022-09-03T12:01:21.708Z,1004.21
2022-09-03T12:02:21.770Z,1004.21
2022-09-03T12:03:21.703Z,1004.20
2022-09-03T12:04:21.727Z,1004.18
2022-09-03T12:05:21.712Z,1004.22